sensor_id;sensor_type;location;lat;lon;timestamp;temperature;humidity
530;DHT22;251;48.704;9.210;2022-08-14T00:02:05;15.10;25.50
530;DHT22;251;48.704;9.210;2022-08-14T00:04:33;15.30;25.60
530;DHT22;251;48.704;9.210;2022-08-14T00:07:00;15.40;25.90
530;DHT22;251;48.704;9.210;2022-08-14T00:09:27;15.40;25.90
530;DHT22;251;48.704;9.210;2022-08-14T00:11:54;15.20;25.60
530;DHT22;251;48.704;9.210;2022-08-14T00:14:22;15.30;26.20
530;DHT22;251;48.704;9.210;2022-08-14T00:16:49;15.10;25.70
530;DHT22;251;48.704;9.210;2022-08-14T00:19:17;15.30;26.20
530;DHT22;251;48.704;9.210;2022-08-14T00:21:44;15.10;25.80
530;DHT22;251;48.704;9.210;2022-08-14T00:24:10;15.10;25.90
530;DHT22;251;48.704;9.210;2022-08-14T00:26:37;15.00;25.90
530;DHT22;251;48.704;9.210;2022-08-14T00:29:04;15.10;26.20
530;DHT22;251;48.704;9.210;2022-08-14T00:31:32;14.80;26.20
530;DHT22;251;48.704;9.210;2022-08-14T00:33:59;14.90;26.70
530;DHT22;251;48.704;9.210;2022-08-14T00:36:25;15.00;26.60
530;DHT22;251;48.704;9.210;2022-08-14T00:38:52;15.00;26.60
530;DHT22;251;48.704;9.210;2022-08-14T00:41:19;14.70;26.70
530;DHT22;251;48.704;9.210;2022-08-14T00:43:46;14.60;26.80
530;DHT22;251;48.704;9.210;2022-08-14T00:46:13;14.50;26.80
530;DHT22;251;48.704;9.210;2022-08-14T00:48:41;14.90;27.40
530;DHT22;251;48.704;9.210;2022-08-14T00:51:09;14.60;27.70
530;DHT22;251;48.704;9.210;2022-08-14T00:53:37;14.50;27.30
530;DHT22;251;48.704;9.210;2022-08-14T00:56:05;14.70;27.90
530;DHT22;251;48.704;9.210;2022-08-14T00:58:33;14.40;27.60
530;DHT22;251;48.704;9.210;2022-08-14T01:01:03;14.10;27.50
530;DHT22;251;48.704;9.210;2022-08-14T01:03:31;14.50;27.60
530;DHT22;251;48.704;9.210;2022-08-14T01:06:06;14.50;27.70
530;DHT22;251;48.704;9.210;2022-08-14T01:08:34;14.00;27.90
530;DHT22;251;48.704;9.210;2022-08-14T01:11:02;14.50;28.60
530;DHT22;251;48.704;9.210;2022-08-14T01:13:31;14.40;28.60
530;DHT22;251;48.704;9.210;2022-08-14T01:16:00;14.20;29.10
530;DHT22;251;48.704;9.210;2022-08-14T01:18:29;14.20;28.60
530;DHT22;251;48.704;9.210;2022-08-14T01:21:15;14.20;28.70
530;DHT22;251;48.704;9.210;2022-08-14T01:23:46;14.40;28.80
530;DHT22;251;48.704;9.210;2022-08-14T01:26:16;14.20;28.90
530;DHT22;251;48.704;9.210;2022-08-14T01:28:46;14.40;28.70
530;DHT22;251;48.704;9.210;2022-08-14T01:31:16;14.10;28.90
530;DHT22;251;48.704;9.210;2022-08-14T01:33:45;13.80;29.10
530;DHT22;251;48.704;9.210;2022-08-14T01:36:14;13.80;28.90
530;DHT22;251;48.704;9.210;2022-08-14T01:38:45;13.90;29.40
530;DHT22;251;48.704;9.210;2022-08-14T01:41:15;14.10;29.90
530;DHT22;251;48.704;9.210;2022-08-14T01:43:46;13.80;29.60
530;DHT22;251;48.704;9.210;2022-08-14T01:46:15;13.90;29.90
530;DHT22;251;48.704;9.210;2022-08-14T01:48:44;13.90;29.60
530;DHT22;251;48.704;9.210;2022-08-14T01:51:13;13.70;29.50
530;DHT22;251;48.704;9.210;2022-08-14T01:53:42;13.80;29.70
530;DHT22;251;48.704;9.210;2022-08-14T01:56:10;13.80;29.90
530;DHT22;251;48.704;9.210;2022-08-14T01:58:38;14.00;30.60
530;DHT22;251;48.704;9.210;2022-08-14T02:01:06;14.00;30.60
530;DHT22;251;48.704;9.210;2022-08-14T02:03:39;13.90;30.00
530;DHT22;251;48.704;9.210;2022-08-14T02:06:06;13.90;30.30
530;DHT22;251;48.704;9.210;2022-08-14T02:08:33;13.60;30.00
530;DHT22;251;48.704;9.210;2022-08-14T02:11:03;13.90;30.20
530;DHT22;251;48.704;9.210;2022-08-14T02:13:51;13.60;30.40
530;DHT22;251;48.704;9.210;2022-08-14T02:16:20;13.60;30.30
530;DHT22;251;48.704;9.210;2022-08-14T02:18:51;13.60;31.00
530;DHT22;251;48.704;9.210;2022-08-14T02:21:18;13.40;30.00
530;DHT22;251;48.704;9.210;2022-08-14T02:23:46;13.80;31.40
530;DHT22;251;48.704;9.210;2022-08-14T02:26:15;13.20;31.10
530;DHT22;251;48.704;9.210;2022-08-14T02:28:43;13.40;31.30
530;DHT22;251;48.704;9.210;2022-08-14T02:31:12;13.70;31.30
530;DHT22;251;48.704;9.210;2022-08-14T02:33:40;13.50;31.50
530;DHT22;251;48.704;9.210;2022-08-14T02:36:08;13.40;31.30
530;DHT22;251;48.704;9.210;2022-08-14T02:38:36;13.30;30.60
530;DHT22;251;48.704;9.210;2022-08-14T02:41:06;13.40;31.30
530;DHT22;251;48.704;9.210;2022-08-14T02:43:34;13.40;31.50
530;DHT22;251;48.704;9.210;2022-08-14T02:46:04;13.50;31.70
530;DHT22;251;48.704;9.210;2022-08-14T02:48:35;13.20;31.10
530;DHT22;251;48.704;9.210;2022-08-14T02:51:05;13.50;31.30
530;DHT22;251;48.704;9.210;2022-08-14T02:53:32;13.20;31.10
530;DHT22;251;48.704;9.210;2022-08-14T02:56:00;13.20;31.30
530;DHT22;251;48.704;9.210;2022-08-14T02:58:28;13.00;31.40
530;DHT22;251;48.704;9.210;2022-08-14T03:00:55;13.40;32.60
530;DHT22;251;48.704;9.210;2022-08-14T03:03:22;13.20;32.30
530;DHT22;251;48.704;9.210;2022-08-14T03:05:52;13.20;32.30
530;DHT22;251;48.704;9.210;2022-08-14T03:08:20;13.20;32.00
530;DHT22;251;48.704;9.210;2022-08-14T03:10:47;13.20;32.10
530;DHT22;251;48.704;9.210;2022-08-14T03:13:14;13.20;33.10
530;DHT22;251;48.704;9.210;2022-08-14T03:15:41;13.30;32.20
530;DHT22;251;48.704;9.210;2022-08-14T03:18:11;13.20;32.10
530;DHT22;251;48.704;9.210;2022-08-14T03:20:38;13.10;32.40
530;DHT22;251;48.704;9.210;2022-08-14T03:23:07;12.90;32.10
530;DHT22;251;48.704;9.210;2022-08-14T03:25:34;13.10;33.00
530;DHT22;251;48.704;9.210;2022-08-14T03:28:03;13.20;33.60
530;DHT22;251;48.704;9.210;2022-08-14T03:30:32;13.00;33.20
530;DHT22;251;48.704;9.210;2022-08-14T03:33:00;12.90;33.50
530;DHT22;251;48.704;9.210;2022-08-14T03:35:28;13.10;33.40
530;DHT22;251;48.704;9.210;2022-08-14T03:37:55;13.00;33.50
530;DHT22;251;48.704;9.210;2022-08-14T03:40:31;13.00;33.60
530;DHT22;251;48.704;9.210;2022-08-14T03:42:57;12.70;33.10
530;DHT22;251;48.704;9.210;2022-08-14T03:45:24;13.00;33.70
530;DHT22;251;48.704;9.210;2022-08-14T03:47:51;12.80;33.60
530;DHT22;251;48.704;9.210;2022-08-14T03:50:18;12.80;33.80
530;DHT22;251;48.704;9.210;2022-08-14T03:52:44;12.60;33.80
530;DHT22;251;48.704;9.210;2022-08-14T03:55:12;12.90;34.50
530;DHT22;251;48.704;9.210;2022-08-14T03:57:40;12.50;33.70
530;DHT22;251;48.704;9.210;2022-08-14T04:00:10;12.50;33.90
530;DHT22;251;48.704;9.210;2022-08-14T04:02:39;12.50;34.40
530;DHT22;251;48.704;9.210;2022-08-14T04:05:07;12.50;34.50
530;DHT22;251;48.704;9.210;2022-08-14T04:07:35;12.90;34.70
530;DHT22;251;48.704;9.210;2022-08-14T04:10:04;12.80;34.80
530;DHT22;251;48.704;9.210;2022-08-14T04:12:31;12.60;34.40
530;DHT22;251;48.704;9.210;2022-08-14T04:14:59;12.80;35.90
530;DHT22;251;48.704;9.210;2022-08-14T04:17:26;12.60;35.70
530;DHT22;251;48.704;9.210;2022-08-14T04:19:53;12.40;35.50
530;DHT22;251;48.704;9.210;2022-08-14T04:22:20;12.30;36.20
530;DHT22;251;48.704;9.210;2022-08-14T04:24:48;12.60;35.60
530;DHT22;251;48.704;9.210;2022-08-14T04:27:15;12.50;36.20
530;DHT22;251;48.704;9.210;2022-08-14T04:29:42;12.60;36.20
530;DHT22;251;48.704;9.210;2022-08-14T04:32:11;12.60;35.70
530;DHT22;251;48.704;9.210;2022-08-14T04:34:39;12.50;35.70
530;DHT22;251;48.704;9.210;2022-08-14T04:37:07;12.40;36.00
530;DHT22;251;48.704;9.210;2022-08-14T04:39:52;12.20;36.60
530;DHT22;251;48.704;9.210;2022-08-14T04:42:36;12.30;37.20
530;DHT22;251;48.704;9.210;2022-08-14T04:45:21;12.50;37.40
530;DHT22;251;48.704;9.210;2022-08-14T04:47:50;12.40;37.50
530;DHT22;251;48.704;9.210;2022-08-14T04:50:35;12.40;38.10
530;DHT22;251;48.704;9.210;2022-08-14T04:53:02;12.60;38.90
530;DHT22;251;48.704;9.210;2022-08-14T04:55:29;12.30;39.10
530;DHT22;251;48.704;9.210;2022-08-14T04:57:56;12.50;39.40
530;DHT22;251;48.704;9.210;2022-08-14T05:00:24;12.60;38.80
530;DHT22;251;48.704;9.210;2022-08-14T05:02:53;12.90;39.60
530;DHT22;251;48.704;9.210;2022-08-14T05:05:22;12.90;39.50
530;DHT22;251;48.704;9.210;2022-08-14T05:07:49;12.90;38.80
530;DHT22;251;48.704;9.210;2022-08-14T05:10:16;12.80;39.20
530;DHT22;251;48.704;9.210;2022-08-14T05:12:46;12.90;40.40
530;DHT22;251;48.704;9.210;2022-08-14T05:15:13;12.90;40.70
530;DHT22;251;48.704;9.210;2022-08-14T05:17:43;12.90;41.00
530;DHT22;251;48.704;9.210;2022-08-14T05:20:11;13.20;41.20
530;DHT22;251;48.704;9.210;2022-08-14T05:22:38;13.00;41.30
530;DHT22;251;48.704;9.210;2022-08-14T05:25:05;13.30;42.80
530;DHT22;251;48.704;9.210;2022-08-14T05:27:32;13.20;42.50
530;DHT22;251;48.704;9.210;2022-08-14T05:30:03;13.40;43.30
530;DHT22;251;48.704;9.210;2022-08-14T05:32:29;13.30;44.00
530;DHT22;251;48.704;9.210;2022-08-14T05:34:57;13.70;45.80
530;DHT22;251;48.704;9.210;2022-08-14T05:37:26;13.80;43.90
530;DHT22;251;48.704;9.210;2022-08-14T05:39:55;13.70;43.70
530;DHT22;251;48.704;9.210;2022-08-14T05:42:22;13.80;44.00
530;DHT22;251;48.704;9.210;2022-08-14T05:44:49;14.00;44.40
530;DHT22;251;48.704;9.210;2022-08-14T05:47:16;14.00;44.20
530;DHT22;251;48.704;9.210;2022-08-14T05:49:43;13.80;44.30
530;DHT22;251;48.704;9.210;2022-08-14T05:52:10;14.10;45.50
530;DHT22;251;48.704;9.210;2022-08-14T05:54:38;14.20;43.90
530;DHT22;251;48.704;9.210;2022-08-14T05:57:05;14.30;41.80
530;DHT22;251;48.704;9.210;2022-08-14T05:59:32;14.30;40.40
530;DHT22;251;48.704;9.210;2022-08-14T06:01:59;14.70;41.10
530;DHT22;251;48.704;9.210;2022-08-14T06:04:26;14.90;41.40
530;DHT22;251;48.704;9.210;2022-08-14T06:06:53;15.00;40.40
530;DHT22;251;48.704;9.210;2022-08-14T06:09:20;15.00;38.80
530;DHT22;251;48.704;9.210;2022-08-14T06:11:48;15.00;38.20
530;DHT22;251;48.704;9.210;2022-08-14T06:14:15;15.40;39.70
530;DHT22;251;48.704;9.210;2022-08-14T06:16:41;15.40;39.70
530;DHT22;251;48.704;9.210;2022-08-14T06:19:09;15.30;39.50
530;DHT22;251;48.704;9.210;2022-08-14T06:21:36;15.50;40.50
530;DHT22;251;48.704;9.210;2022-08-14T06:24:04;15.70;38.10
530;DHT22;251;48.704;9.210;2022-08-14T06:26:30;15.90;35.90
530;DHT22;251;48.704;9.210;2022-08-14T06:28:58;16.00;36.40
530;DHT22;251;48.704;9.210;2022-08-14T06:31:25;16.20;34.10
530;DHT22;251;48.704;9.210;2022-08-14T06:33:52;16.20;31.50
530;DHT22;251;48.704;9.210;2022-08-14T06:36:19;16.20;28.90
530;DHT22;251;48.704;9.210;2022-08-14T06:38:46;16.80;27.10
530;DHT22;251;48.704;9.210;2022-08-14T06:41:13;16.60;26.40
530;DHT22;251;48.704;9.210;2022-08-14T06:43:40;17.10;25.00
530;DHT22;251;48.704;9.210;2022-08-14T06:46:08;16.80;24.60
530;DHT22;251;48.704;9.210;2022-08-14T06:48:34;17.00;23.90
530;DHT22;251;48.704;9.210;2022-08-14T06:51:01;17.20;22.40
530;DHT22;251;48.704;9.210;2022-08-14T06:53:28;17.40;21.90
530;DHT22;251;48.704;9.210;2022-08-14T06:55:55;17.70;22.40
530;DHT22;251;48.704;9.210;2022-08-14T06:58:23;17.50;21.90
530;DHT22;251;48.704;9.210;2022-08-14T07:00:49;17.60;21.50
530;DHT22;251;48.704;9.210;2022-08-14T07:03:35;17.90;20.10
530;DHT22;251;48.704;9.210;2022-08-14T07:06:19;17.80;20.10
530;DHT22;251;48.704;9.210;2022-08-14T07:08:46;18.10;20.30
530;DHT22;251;48.704;9.210;2022-08-14T07:11:13;18.30;19.80
530;DHT22;251;48.704;9.210;2022-08-14T07:13:40;18.70;19.30
530;DHT22;251;48.704;9.210;2022-08-14T07:16:07;18.60;18.20
530;DHT22;251;48.704;9.210;2022-08-14T07:18:35;18.40;17.80
530;DHT22;251;48.704;9.210;2022-08-14T07:21:04;18.90;18.10
530;DHT22;251;48.704;9.210;2022-08-14T07:23:31;18.50;17.10
530;DHT22;251;48.704;9.210;2022-08-14T07:25:59;18.80;17.00
530;DHT22;251;48.704;9.210;2022-08-14T07:28:29;18.90;16.30
530;DHT22;251;48.704;9.210;2022-08-14T07:30:58;18.80;15.80
530;DHT22;251;48.704;9.210;2022-08-14T07:33:27;19.20;15.60
530;DHT22;251;48.704;9.210;2022-08-14T07:35:56;19.60;14.40
530;DHT22;251;48.704;9.210;2022-08-14T07:38:24;19.40;14.50
530;DHT22;251;48.704;9.210;2022-08-14T07:40:52;19.80;15.50
530;DHT22;251;48.704;9.210;2022-08-14T07:43:20;19.60;14.40
530;DHT22;251;48.704;9.210;2022-08-14T07:45:46;19.30;13.40
530;DHT22;251;48.704;9.210;2022-08-14T07:48:13;19.70;12.00
530;DHT22;251;48.704;9.210;2022-08-14T07:50:40;19.80;12.50
530;DHT22;251;48.704;9.210;2022-08-14T07:53:09;20.10;12.60
530;DHT22;251;48.704;9.210;2022-08-14T07:55:36;20.00;12.70
530;DHT22;251;48.704;9.210;2022-08-14T07:58:03;20.30;12.40
530;DHT22;251;48.704;9.210;2022-08-14T08:00:30;20.10;11.80
530;DHT22;251;48.704;9.210;2022-08-14T08:02:58;20.30;11.40
530;DHT22;251;48.704;9.210;2022-08-14T08:05:25;20.50;9.60
530;DHT22;251;48.704;9.210;2022-08-14T08:07:52;20.60;9.00
530;DHT22;251;48.704;9.210;2022-08-14T08:10:22;20.80;8.50
530;DHT22;251;48.704;9.210;2022-08-14T08:13:02;20.90;8.70
530;DHT22;251;48.704;9.210;2022-08-14T08:15:31;21.10;8.90
530;DHT22;251;48.704;9.210;2022-08-14T08:17:58;21.20;7.30
530;DHT22;251;48.704;9.210;2022-08-14T08:20:27;21.40;7.20
530;DHT22;251;48.704;9.210;2022-08-14T08:22:55;21.50;7.80
530;DHT22;251;48.704;9.210;2022-08-14T08:25:25;21.70;8.50
530;DHT22;251;48.704;9.210;2022-08-14T08:27:57;21.90;6.10
530;DHT22;251;48.704;9.210;2022-08-14T08:30:25;22.00;6.60
530;DHT22;251;48.704;9.210;2022-08-14T08:32:53;22.20;4.90
530;DHT22;251;48.704;9.210;2022-08-14T08:35:23;22.40;4.40
530;DHT22;251;48.704;9.210;2022-08-14T08:37:52;22.60;2.90
530;DHT22;251;48.704;9.210;2022-08-14T08:40:26;22.70;3.10
530;DHT22;251;48.704;9.210;2022-08-14T08:42:53;22.80;4.60
530;DHT22;251;48.704;9.210;2022-08-14T08:45:20;23.00;4.00
530;DHT22;251;48.704;9.210;2022-08-14T08:47:49;23.10;2.70
530;DHT22;251;48.704;9.210;2022-08-14T08:50:21;23.30;3.00
530;DHT22;251;48.704;9.210;2022-08-14T08:52:50;23.50;1.60
530;DHT22;251;48.704;9.210;2022-08-14T08:55:28;23.60;1.30
530;DHT22;251;48.704;9.210;2022-08-14T08:57:57;23.80;1.50
530;DHT22;251;48.704;9.210;2022-08-14T09:00:24;23.90;1.10
530;DHT22;251;48.704;9.210;2022-08-14T09:02:57;24.00;1.00
530;DHT22;251;48.704;9.210;2022-08-14T09:05:24;24.10;1.00
530;DHT22;251;48.704;9.210;2022-08-14T09:07:51;24.20;1.00
530;DHT22;251;48.704;9.210;2022-08-14T09:10:18;24.30;1.00
530;DHT22;251;48.704;9.210;2022-08-14T09:12:46;24.40;1.00
530;DHT22;251;48.704;9.210;2022-08-14T09:15:13;24.50;1.00
530;DHT22;251;48.704;9.210;2022-08-14T09:17:41;24.60;1.00
530;DHT22;251;48.704;9.210;2022-08-14T09:20:10;24.80;1.00
530;DHT22;251;48.704;9.210;2022-08-14T09:22:38;24.80;1.00
530;DHT22;251;48.704;9.210;2022-08-14T09:25:07;24.90;1.00
530;DHT22;251;48.704;9.210;2022-08-14T09:27:35;25.10;1.00
530;DHT22;251;48.704;9.210;2022-08-14T09:30:05;25.10;1.00
530;DHT22;251;48.704;9.210;2022-08-14T09:32:45;25.20;1.00
530;DHT22;251;48.704;9.210;2022-08-14T09:35:23;25.30;1.00
530;DHT22;251;48.704;9.210;2022-08-14T09:37:59;25.40;1.00
530;DHT22;251;48.704;9.210;2022-08-14T09:40:41;25.50;1.00
530;DHT22;251;48.704;9.210;2022-08-14T09:43:21;25.60;1.00
530;DHT22;251;48.704;9.210;2022-08-14T09:45:55;25.70;1.00
530;DHT22;251;48.704;9.210;2022-08-14T09:48:24;25.80;1.00
530;DHT22;251;48.704;9.210;2022-08-14T09:50:52;25.90;1.00
530;DHT22;251;48.704;9.210;2022-08-14T09:53:34;26.00;1.00
530;DHT22;251;48.704;9.210;2022-08-14T09:56:02;26.10;1.00
530;DHT22;251;48.704;9.210;2022-08-14T09:58:38;26.20;1.00
530;DHT22;251;48.704;9.210;2022-08-14T10:01:12;26.20;1.00
530;DHT22;251;48.704;9.210;2022-08-14T10:03:47;26.20;1.00
530;DHT22;251;48.704;9.210;2022-08-14T10:06:16;26.20;1.00
530;DHT22;251;48.704;9.210;2022-08-14T10:08:46;26.30;1.00
530;DHT22;251;48.704;9.210;2022-08-14T10:11:18;26.30;1.00
530;DHT22;251;48.704;9.210;2022-08-14T10:13:47;26.30;1.00
530;DHT22;251;48.704;9.210;2022-08-14T10:16:19;26.30;1.00
530;DHT22;251;48.704;9.210;2022-08-14T10:18:49;26.30;1.00
530;DHT22;251;48.704;9.210;2022-08-14T10:21:26;26.30;1.00
530;DHT22;251;48.704;9.210;2022-08-14T10:23:53;26.50;1.00
530;DHT22;251;48.704;9.210;2022-08-14T10:26:20;26.60;1.00
530;DHT22;251;48.704;9.210;2022-08-14T10:28:49;26.70;1.00
530;DHT22;251;48.704;9.210;2022-08-14T10:31:20;26.80;1.00
530;DHT22;251;48.704;9.210;2022-08-14T10:33:58;27.00;1.00
530;DHT22;251;48.704;9.210;2022-08-14T10:36:26;27.10;1.00
530;DHT22;251;48.704;9.210;2022-08-14T10:38:59;27.20;1.00
530;DHT22;251;48.704;9.210;2022-08-14T10:41:34;27.30;1.00
530;DHT22;251;48.704;9.210;2022-08-14T10:44:08;27.40;1.00
530;DHT22;251;48.704;9.210;2022-08-14T10:46:42;27.50;1.00
530;DHT22;251;48.704;9.210;2022-08-14T10:49:17;27.60;1.00
530;DHT22;251;48.704;9.210;2022-08-14T10:51:55;27.60;1.00
530;DHT22;251;48.704;9.210;2022-08-14T10:54:30;27.70;1.00
530;DHT22;251;48.704;9.210;2022-08-14T10:57:09;27.80;1.00
530;DHT22;251;48.704;9.210;2022-08-14T10:59:48;27.90;1.00
530;DHT22;251;48.704;9.210;2022-08-14T11:02:22;28.00;1.00
530;DHT22;251;48.704;9.210;2022-08-14T11:05:02;28.10;1.00
530;DHT22;251;48.704;9.210;2022-08-14T11:07:30;28.10;1.00
530;DHT22;251;48.704;9.210;2022-08-14T11:09:59;28.20;1.00
530;DHT22;251;48.704;9.210;2022-08-14T11:12:37;28.30;1.00
530;DHT22;251;48.704;9.210;2022-08-14T11:15:05;28.30;1.00
530;DHT22;251;48.704;9.210;2022-08-14T11:17:33;28.40;1.00
530;DHT22;251;48.704;9.210;2022-08-14T11:20:04;28.50;1.00
530;DHT22;251;48.704;9.210;2022-08-14T11:22:32;28.50;1.00
530;DHT22;251;48.704;9.210;2022-08-14T11:25:02;28.50;1.00
530;DHT22;251;48.704;9.210;2022-08-14T11:27:30;28.60;1.00
530;DHT22;251;48.704;9.210;2022-08-14T11:30:00;28.70;1.00
530;DHT22;251;48.704;9.210;2022-08-14T11:32:28;28.80;1.00
530;DHT22;251;48.704;9.210;2022-08-14T11:34:57;28.90;1.00
530;DHT22;251;48.704;9.210;2022-08-14T11:37:24;28.90;1.00
530;DHT22;251;48.704;9.210;2022-08-14T11:39:58;29.00;1.00
530;DHT22;251;48.704;9.210;2022-08-14T11:42:27;29.00;1.00
530;DHT22;251;48.704;9.210;2022-08-14T11:44:56;29.00;1.00
530;DHT22;251;48.704;9.210;2022-08-14T11:47:23;29.10;1.00
530;DHT22;251;48.704;9.210;2022-08-14T11:49:50;29.10;1.00
530;DHT22;251;48.704;9.210;2022-08-14T11:52:19;29.10;1.00
530;DHT22;251;48.704;9.210;2022-08-14T11:54:55;29.20;1.00
530;DHT22;251;48.704;9.210;2022-08-14T11:57:24;29.30;1.00
530;DHT22;251;48.704;9.210;2022-08-14T12:00:00;29.30;1.00
530;DHT22;251;48.704;9.210;2022-08-14T12:02:29;29.40;1.00
530;DHT22;251;48.704;9.210;2022-08-14T12:04:56;29.40;1.00
530;DHT22;251;48.704;9.210;2022-08-14T12:07:25;29.40;1.00
530;DHT22;251;48.704;9.210;2022-08-14T12:09:53;29.40;1.00
530;DHT22;251;48.704;9.210;2022-08-14T12:12:22;29.50;1.00
530;DHT22;251;48.704;9.210;2022-08-14T12:14:52;29.50;1.00
530;DHT22;251;48.704;9.210;2022-08-14T12:17:21;29.50;1.00
530;DHT22;251;48.704;9.210;2022-08-14T12:19:51;29.60;1.00
530;DHT22;251;48.704;9.210;2022-08-14T12:22:19;29.60;1.00
530;DHT22;251;48.704;9.210;2022-08-14T12:24:49;29.60;1.00
530;DHT22;251;48.704;9.210;2022-08-14T12:27:16;29.60;1.00
530;DHT22;251;48.704;9.210;2022-08-14T12:29:51;29.60;1.00
530;DHT22;251;48.704;9.210;2022-08-14T12:32:18;29.70;1.00
530;DHT22;251;48.704;9.210;2022-08-14T12:34:51;29.70;1.00
530;DHT22;251;48.704;9.210;2022-08-14T12:37:28;29.80;1.00
530;DHT22;251;48.704;9.210;2022-08-14T12:40:09;29.90;1.00
530;DHT22;251;48.704;9.210;2022-08-14T12:42:36;29.90;1.00
530;DHT22;251;48.704;9.210;2022-08-14T12:45:04;30.00;1.00
530;DHT22;251;48.704;9.210;2022-08-14T12:47:31;30.00;1.00
530;DHT22;251;48.704;9.210;2022-08-14T12:49:58;30.00;1.00
530;DHT22;251;48.704;9.210;2022-08-14T12:52:27;30.00;1.00
530;DHT22;251;48.704;9.210;2022-08-14T12:55:00;30.10;1.00
530;DHT22;251;48.704;9.210;2022-08-14T12:57:38;30.10;1.00
530;DHT22;251;48.704;9.210;2022-08-14T13:00:12;30.20;1.00
530;DHT22;251;48.704;9.210;2022-08-14T13:02:44;30.20;1.00
530;DHT22;251;48.704;9.210;2022-08-14T13:05:13;30.30;1.00
530;DHT22;251;48.704;9.210;2022-08-14T13:07:41;30.40;1.00
530;DHT22;251;48.704;9.210;2022-08-14T13:10:09;30.40;1.00
530;DHT22;251;48.704;9.210;2022-08-14T13:12:40;30.40;1.00
530;DHT22;251;48.704;9.210;2022-08-14T13:15:09;30.40;1.00
530;DHT22;251;48.704;9.210;2022-08-14T13:17:40;30.40;1.00
530;DHT22;251;48.704;9.210;2022-08-14T13:20:09;30.40;1.00
530;DHT22;251;48.704;9.210;2022-08-14T13:22:38;30.40;1.00
530;DHT22;251;48.704;9.210;2022-08-14T13:25:07;30.40;1.00
530;DHT22;251;48.704;9.210;2022-08-14T13:27:34;30.40;1.00
530;DHT22;251;48.704;9.210;2022-08-14T13:30:04;30.40;1.00
530;DHT22;251;48.704;9.210;2022-08-14T13:32:32;30.40;1.00
530;DHT22;251;48.704;9.210;2022-08-14T13:35:04;30.50;1.00
530;DHT22;251;48.704;9.210;2022-08-14T13:37:31;30.60;1.00
530;DHT22;251;48.704;9.210;2022-08-14T13:39:58;30.60;1.00
530;DHT22;251;48.704;9.210;2022-08-14T13:42:26;30.60;1.00
530;DHT22;251;48.704;9.210;2022-08-14T13:44:54;30.40;1.00
530;DHT22;251;48.704;9.210;2022-08-14T13:47:25;30.40;1.00
530;DHT22;251;48.704;9.210;2022-08-14T13:49:54;30.40;1.00
530;DHT22;251;48.704;9.210;2022-08-14T13:52:23;30.40;1.00
530;DHT22;251;48.704;9.210;2022-08-14T13:54:52;30.40;1.00
530;DHT22;251;48.704;9.210;2022-08-14T13:57:19;30.50;1.00
530;DHT22;251;48.704;9.210;2022-08-14T13:59:47;30.60;1.00
530;DHT22;251;48.704;9.210;2022-08-14T14:02:16;30.70;1.00
530;DHT22;251;48.704;9.210;2022-08-14T14:04:47;30.70;1.00
530;DHT22;251;48.704;9.210;2022-08-14T14:07:17;30.80;1.00
530;DHT22;251;48.704;9.210;2022-08-14T14:09:47;30.90;1.00
530;DHT22;251;48.704;9.210;2022-08-14T14:12:14;30.90;1.00
530;DHT22;251;48.704;9.210;2022-08-14T14:14:42;31.00;1.00
530;DHT22;251;48.704;9.210;2022-08-14T14:17:10;31.10;1.00
530;DHT22;251;48.704;9.210;2022-08-14T14:19:42;31.10;1.00
530;DHT22;251;48.704;9.210;2022-08-14T14:22:13;31.20;1.00
530;DHT22;251;48.704;9.210;2022-08-14T14:24:40;31.10;1.00
530;DHT22;251;48.704;9.210;2022-08-14T14:27:07;31.20;1.00
530;DHT22;251;48.704;9.210;2022-08-14T14:29:35;31.20;1.00
530;DHT22;251;48.704;9.210;2022-08-14T14:32:02;31.20;1.00
530;DHT22;251;48.704;9.210;2022-08-14T14:34:30;31.20;1.00
530;DHT22;251;48.704;9.210;2022-08-14T14:36:59;31.20;1.00
530;DHT22;251;48.704;9.210;2022-08-14T14:39:31;31.20;1.00
530;DHT22;251;48.704;9.210;2022-08-14T14:41:58;31.10;1.00
530;DHT22;251;48.704;9.210;2022-08-14T14:44:33;31.00;1.00
530;DHT22;251;48.704;9.210;2022-08-14T14:47:00;31.00;1.00
530;DHT22;251;48.704;9.210;2022-08-14T14:49:28;30.90;1.00
530;DHT22;251;48.704;9.210;2022-08-14T14:51:55;30.90;1.00
530;DHT22;251;48.704;9.210;2022-08-14T14:54:22;30.90;1.00
530;DHT22;251;48.704;9.210;2022-08-14T14:56:50;30.90;1.00
530;DHT22;251;48.704;9.210;2022-08-14T14:59:18;30.90;1.00
530;DHT22;251;48.704;9.210;2022-08-14T15:01:50;30.90;1.00
530;DHT22;251;48.704;9.210;2022-08-14T15:04:20;30.90;1.00
530;DHT22;251;48.704;9.210;2022-08-14T15:06:47;30.90;1.00
530;DHT22;251;48.704;9.210;2022-08-14T15:09:14;30.80;1.00
530;DHT22;251;48.704;9.210;2022-08-14T15:11:41;30.70;1.00
530;DHT22;251;48.704;9.210;2022-08-14T15:14:09;30.60;1.00
530;DHT22;251;48.704;9.210;2022-08-14T15:16:36;30.60;1.00
530;DHT22;251;48.704;9.210;2022-08-14T15:19:03;30.60;1.00
530;DHT22;251;48.704;9.210;2022-08-14T15:21:30;30.50;1.00
530;DHT22;251;48.704;9.210;2022-08-14T15:23:59;30.40;1.00
530;DHT22;251;48.704;9.210;2022-08-14T15:26:26;30.40;1.00
530;DHT22;251;48.704;9.210;2022-08-14T15:28:53;30.40;1.00
530;DHT22;251;48.704;9.210;2022-08-14T15:31:21;30.40;1.00
530;DHT22;251;48.704;9.210;2022-08-14T15:33:47;30.40;1.00
530;DHT22;251;48.704;9.210;2022-08-14T15:36:32;30.40;1.00
530;DHT22;251;48.704;9.210;2022-08-14T15:38:59;30.50;1.00
530;DHT22;251;48.704;9.210;2022-08-14T15:41:27;30.50;1.00
530;DHT22;251;48.704;9.210;2022-08-14T15:43:55;30.40;1.00
530;DHT22;251;48.704;9.210;2022-08-14T15:46:24;30.40;1.00
530;DHT22;251;48.704;9.210;2022-08-14T15:48:51;30.40;1.00
530;DHT22;251;48.704;9.210;2022-08-14T15:51:18;30.40;1.00
530;DHT22;251;48.704;9.210;2022-08-14T15:53:45;30.30;1.00
530;DHT22;251;48.704;9.210;2022-08-14T15:56:14;30.30;1.00
530;DHT22;251;48.704;9.210;2022-08-14T15:58:41;30.30;1.00
530;DHT22;251;48.704;9.210;2022-08-14T16:01:08;30.30;1.00
530;DHT22;251;48.704;9.210;2022-08-14T16:03:49;30.30;1.00
530;DHT22;251;48.704;9.210;2022-08-14T16:06:24;30.20;1.00
530;DHT22;251;48.704;9.210;2022-08-14T16:08:54;30.30;1.00
530;DHT22;251;48.704;9.210;2022-08-14T16:11:22;30.30;1.00
530;DHT22;251;48.704;9.210;2022-08-14T16:13:49;30.20;1.00
530;DHT22;251;48.704;9.210;2022-08-14T16:16:18;30.20;1.00
530;DHT22;251;48.704;9.210;2022-08-14T16:18:48;30.20;1.00
530;DHT22;251;48.704;9.210;2022-08-14T16:21:16;30.30;1.00
530;DHT22;251;48.704;9.210;2022-08-14T16:23:45;30.30;1.00
530;DHT22;251;48.704;9.210;2022-08-14T16:26:13;30.30;1.00
530;DHT22;251;48.704;9.210;2022-08-14T16:28:41;30.20;1.00
530;DHT22;251;48.704;9.210;2022-08-14T16:31:08;30.20;1.00
530;DHT22;251;48.704;9.210;2022-08-14T16:33:36;30.10;1.00
530;DHT22;251;48.704;9.210;2022-08-14T16:36:05;30.10;1.00
530;DHT22;251;48.704;9.210;2022-08-14T16:38:33;30.00;1.00
530;DHT22;251;48.704;9.210;2022-08-14T16:41:05;29.90;1.00
530;DHT22;251;48.704;9.210;2022-08-14T16:43:45;29.90;1.00
530;DHT22;251;48.704;9.210;2022-08-14T16:46:15;29.80;1.00
530;DHT22;251;48.704;9.210;2022-08-14T16:48:43;29.70;1.00
530;DHT22;251;48.704;9.210;2022-08-14T16:51:14;29.70;1.00
530;DHT22;251;48.704;9.210;2022-08-14T16:53:42;29.60;1.00
530;DHT22;251;48.704;9.210;2022-08-14T16:56:15;29.50;1.00
530;DHT22;251;48.704;9.210;2022-08-14T16:58:43;29.40;1.00